METAR Data
IDs: Format: Raw Decoded Include TAF

Data at: 0501 UTC 21 Sep 2018

KBBW 210453Z AUTO 32008KT 10SM CLR 14/11 A3002 RMK AO2 SLP153 T01390111
KBBW 210353Z AUTO 33010KT 10SM CLR 14/12 A2999 RMK AO2 SLP143 T01440117
KBBW 210253Z AUTO 33011G21KT 10SM CLR 16/13 A2993 RMK AO2 SLP122 T01610133 53043
KBBW 210153Z AUTO 33008KT 10SM BKN036 18/14 A2987 RMK AO2 SLP101 T01830144
KBBW 210053Z AUTO 32009KT 10SM FEW023 19/16 A2983 RMK AO2 SLP086 T01890156
KBBW 210043Z AUTO 32010KT 10SM SCT023 19/16 A2983 RMK AO2 T01890156
KBBW 210030Z AUTO 33006KT 10SM BKN023 19/17 A2982 RMK AO2 T01890167
KBBW 202353Z AUTO 32011KT 10SM FEW016 20/17 A2979 RMK AO2 SLP072 60006 T02000172 10217 20189 51013
KBBW 202321Z AUTO 33005KT 10SM SCT024 SCT031 21/18 A2977 RMK AO2 T02060178
KBBW 202253Z AUTO 32011KT 10SM FEW015 BKN020 OVC025 21/18 A2979 RMK AO2 SLP069 T02060178
KBBW 202206Z AUTO 32005KT 10SM BKN015 BKN029 22/19 A2977 RMK AO2 T02170189
KBBW 202153Z AUTO 27004KT 10SM FEW017 FEW030 22/19 A2977 RMK AO2 SLP063 T02170189
KBBW 202053Z AUTO 24007KT 10SM CLR 21/19 A2975 RMK AO2 RAB09E22 SLP057 P0000 60006 T02110189 55005
KBBW 201953Z AUTO 19004KT 10SM OVC110 20/19 A2973 RMK AO2 RAE48 SLP049 P0005 T02000189
KBBW 201853Z AUTO VRB03KT 10SM -RA SCT010 BKN036 OVC100 19/18 A2973 RMK AO2 RAB1756E11B37 SLP050 P0001 T01940178
KBBW 201835Z AUTO 29006KT 10SM OVC010 19/17 A2976 RMK AO2 RAB1756E11 P0000 T01940172
KBBW 201753Z AUTO 28011KT 10SM OVC008 20/18 A2977 RMK AO2 CIG 007V013 SLP063 T02000178 10206 20178 53007
KBBW 201653Z AUTO 29010KT 10SM OVC009 20/19 A2975 RMK AO2 CIG 006V010 SLP056 T02000189
KBBW 201610Z AUTO 27005KT 10SM OVC007 20/18 A2973 RMK AO2 CIG 005V010 T02000183
KBBW 201553Z AUTO 25004KT 10SM OVC005 20/18 A2974 RMK AO2 CIG 004V008 SLP051 T02000183
KBBW 201503Z AUTO 00000KT 10SM OVC005 19/18 A2975 RMK AO2 CIG 003V006 T01890183
KBBW 201453Z AUTO 00000KT 10SM OVC003 18/18 A2975 RMK AO2 CIG 002V006 SLP055 T01830183 53001
KBBW 201423Z AUTO 03003KT 5SM BR OVC002 18/18 A2975 RMK AO2 T01830183
KBBW 201413Z AUTO 01003KT 2 1/2SM BR OVC002 18/18 A2975 RMK AO2 T01830183
KBBW 201401Z AUTO 05004KT 1 1/4SM BR OVC002 18/18 A2974 RMK AO2 T01830183
KBBW 201353Z AUTO 05004KT 3/4SM BR VV002 18/18 A2974 RMK AO2 SLP052 T01830183
KBBW 201253Z AUTO 03009KT 1/2SM FG VV002 18/18 A2973 RMK AO2 SLP046 T01780178
KBBW 201244Z AUTO 04008KT 3/4SM BR VV002 18/18 A2973 RMK AO2 T01780178
KBBW 201235Z AUTO 03007KT 1SM BR VV002 18/17 A2974 RMK AO2 T01780172
KBBW 201228Z AUTO 04007KT 2SM BR OVC002 18/17 A2974 RMK AO2 T01780172
KBBW 201153Z AUTO 03007KT 10SM OVC003 18/17 A2975 RMK AO2 SLP050 60169 70187 T01780172 10211 20178 56007
KBBW 201113Z AUTO 04007KT 10SM OVC004 18/17 A2974 RMK AO2 T01830172
KBBW 201053Z AUTO 04009KT 10SM OVC005 18/17 A2975 RMK AO2 SLP050 T01780172
KBBW 201021Z AUTO 04009KT 10SM BKN006 BKN029 OVC050 18/17 A2975 RMK AO2 T01780172
KBBW 200953Z AUTO 06007KT 10SM SCT005 OVC050 18/17 A2977 RMK AO2 LTG DSNT NE AND E RAE15 TSE12 SLP055 P0001 T01830172
KBBW 200942Z AUTO 06005KT 10SM SCT006 BKN046 OVC055 18/18 A2977 RMK AO2 LTG DSNT NE AND E RAE15 TSE12 P0001 T01830178
KBBW 200929Z AUTO 04011G17KT 10SM FEW040 BKN048 OVC060 19/18 A2977 RMK AO2 LTG DSNT N AND NE RAE15 TSE12 P0001 T01890178
KBBW 200912Z AUTO 03007KT 350V060 10SM VCTS -RA FEW006 BKN050 OVC100 19/18 A2977 RMK AO2 LTG DSNT N AND NW TSE12 P0001 T01890183
KBBW 200853Z AUTO 05010KT 8SM +TSRA SCT039 BKN046 BKN100 19/18 A2977 RMK AO2 LTG DSNT NE AND SW AND NW RAE09B46 TSE13B46 SLP056 P0004 60168 T01890183 58012
KBBW 200846Z AUTO 05009KT 10SM -TSRA BKN041 BKN049 19/18 A2977 RMK AO2 LTG DSNT ALQDS RAE09B46 TSE13B46 P0000 T01940183
KBBW 200821Z AUTO 07009KT 10SM SCT007 OVC050 20/19 A2976 RMK AO2 LTG DSNT ALQDS RAE09 TSE13 P0000 T02000194
KBBW 200813Z AUTO 09007KT 10SM SCT007 BKN020 OVC050 21/20 A2977 RMK AO2 LTG DSNT ALQDS RAE09 TSE13 P0000 T02060200
KBBW 200802Z AUTO 09005KT 10SM -TSRA FEW007 SCT041 OVC050 21/19 A2977 RMK AO2 LTG DSNT NW-NE P0000 T02060194
KBBW 200753Z AUTO 10005KT 2SM +TSRA BR FEW020 BKN041 OVC050 21/19 A2976 RMK AO2 LTG DSNT W-NE SLP052 P0116 T02060194
KBBW 200731Z AUTO 31010KT 6SM -TSRA BR SCT022 BKN043 OVC050 21/20 A2977 RMK AO2 LTG DSNT ALQDS P0096 T02060200
KBBW 200714Z AUTO 22007KT 2SM +TSRA BR OVC020 21/19 A2979 RMK AO2 LTG DSNT ALQDS P0075 T02110194
KBBW 200704Z AUTO 1SM +TSRA BR VV018 20/19 A2981 RMK AO2 LTG DSNT ALQDS P0055 T02000194
KBBW 200653Z AUTO 04009KT 2 1/2SM +TSRA BR BKN024 BKN070 OVC085 20/19 A2982 RMK AO2 LTG DSNT ALQDS TSB26 SLP072 P0048 T02000194
KBBW 200632Z AUTO VRB06KT 10SM TSRA FEW080 OVC100 21/19 A2982 RMK AO2 LTG DSNT SW AND W TSB26 P0002 T02060189
KBBW 200623Z AUTO 32007KT 10SM VCTS -RA BKN110 21/19 A2981 RMK AO2 LTG DSNT SW P0001 T02060189
KBBW 200553Z AUTO 06005KT 10SM -RA FEW039 SCT050 BKN075 20/19 A2981 RMK AO2 RAB02 SLP068 P0011 60018 T02000189 10261 20200 403170172 58001
KBBW 200453Z AUTO 03010KT 10SM OVC070 21/19 A2982 RMK AO2 LTG DSNT N AND S AND NW RAB01E11 SLP072 P0000 T02060189
KBBW 200433Z AUTO 36008G16KT 10SM BKN070 OVC100 21/19 A2983 RMK AO2 LTG DSNT N RAB01E11 P0000 T02060189
KBBW 200418Z AUTO 35005KT 10SM VCTS BKN070 BKN095 21/20 A2982 RMK AO2 LTG DSNT N AND NE RAB01E11 P0000 T02110200
KBBW 200353Z AUTO VRB06KT 10SM BKN070 BKN120 22/20 A2982 RMK AO2 LTG DSNT W-NE RAB04E53 TSB08E23 SLP075 P0006 T02170200
KBBW 200342Z AUTO 34012G16KT 10SM -RA SCT070 SCT090 BKN120 22/20 A2982 RMK AO2 LTG DSNT W RAB04 TSB08E23 P0006 T02170200
KBBW 200329Z AUTO 04008KT 10SM VCTS -RA SCT065 BKN090 BKN120 22/20 A2980 RMK AO2 LTG DSNT W-NE RAB04 TSB08E23 P0006 T02170200
KBBW 200314Z AUTO 01011KT 10SM -TSRA BKN065 22/19 A2981 RMK AO2 LTG DSNT N AND NE RAB04 TSB08 P0002 T02170189
KBBW 200253Z AUTO 34008KT 10SM VCTS FEW110 22/18 A2981 RMK AO2 LTG DSNT ALQDS TSE0156B0157E23 SLP074 60001 T02170178 51016
KBBW 200233Z AUTO 35004KT 10SM VCTS FEW060 SCT085 22/17 A2980 RMK AO2 LTG DSNT ALQDS TSE0156B0157E23 T02170167
KBBW 200226Z AUTO 01004KT 10SM SCT065 BKN080 22/17 A2979 RMK AO2 LTG DSNT ALQDS TSE0156B0157E23 T02170172
KBBW 200153Z AUTO 28012KT 10SM TS FEW022 BKN060 OVC075 23/18 A2981 RMK AO2 PK WND 26028/0137 LTG DSNT SW-NW RAB09E49 SLP072 P0001 T02280178
KBBW 200053Z AUTO 00000KT 10SM TS FEW070 26/22 A2977 RMK AO2 LTG DSNT SW AND W TSB53 SLP060 T02560217
KBBW 192353Z AUTO 01008KT 10SM CLR 26/22 A2976 RMK AO2 LTG DSNT SW SLP055 T02610217 10317 20261 56007
KBBW 192253Z AUTO 01008KT 10SM FEW065 FEW080 27/22 A2976 RMK AO2 SLP056 T02720217
KBBW 192153Z AUTO 02012KT 10SM FEW060 28/22 A2977 RMK AO2 WSHFT 2040 SLP056 T02830217
KBBW 192100Z AUTO 04012KT 10SM BKN055 BKN070 28/22 A2978 RMK AO2 WSHFT 2040 T02830217
KBBW 192053Z AUTO 04011G19KT 10SM BKN055 BKN070 28/22 A2978 RMK AO2 SLP060 T02830217 56017
KBBW 191953Z AUTO 15007G16KT 10SM FEW049 32/20 A2979 RMK AO2 SLP060 T03170200
KBBW 191853Z AUTO 13009KT 10SM CLR 31/20 A2981 RMK AO2 SLP069 T03060200
KBBW 191753Z AUTO VRB03KT 10SM CLR 29/20 A2983 RMK AO2 SLP077 T02890200 10289 20172 58001